F00

Jones Field Airport

Bonham, Texas, USA
METAR KF00 151315Z AUTO 19004KT 10SM CLR M04/M05 A3026 RMK AO2 T10381052
Observed Flight Rules
Nov-15 @ 13:15 UTC (16 minutes ago) Visual Flight Rules
Wind Visibility Clouds
190° at 4 knots 10 miles
  • Clear skies
Temperatures Readings
Current -4°C / 25°F
Dewpoint -5°C / 23°F
Humidity 93%
Altimeter 30.26" Hg
Pressure 1025 hPa
Elevation 188
METAR KF00 151315Z AUTO 19004KT 10SM CLR M04/M05 A3026 RMK AO2 T10381052
Observed Flight Rules
Nov-15 @ 13:15 UTC
(16 minutes ago)
VFR
Wind Visibility
190° at 4 knots 10 miles
Clouds
  • Clear skies
Temperature Dewpoint
-4°C / 25°F -5°C / 23°F
Humidity Altimeter Pressure
93% 30.26" Hg 1025 hPa